sensor_id;sensor_type;location;lat;lon;timestamp;temperature;humidity
23540;DHT22;11947;50.810;4.394;2022-08-04T00:00:25;25.00;99.90
23540;DHT22;11947;50.810;4.394;2022-08-04T00:08:17;25.00;99.90
23540;DHT22;11947;50.810;4.394;2022-08-04T00:10:54;25.00;99.90
23540;DHT22;11947;50.810;4.394;2022-08-04T00:13:25;24.90;99.90
23540;DHT22;11947;50.810;4.394;2022-08-04T00:15:58;24.80;99.90
23540;DHT22;11947;50.810;4.394;2022-08-04T00:18:34;24.90;99.90
23540;DHT22;11947;50.810;4.394;2022-08-04T00:21:04;24.90;99.90
23540;DHT22;11947;50.810;4.394;2022-08-04T00:23:33;24.80;99.90
23540;DHT22;11947;50.810;4.394;2022-08-04T00:26:00;24.80;99.90
23540;DHT22;11947;50.810;4.394;2022-08-04T00:28:27;24.70;99.90
23540;DHT22;11947;50.810;4.394;2022-08-04T00:30:53;24.70;99.90
23540;DHT22;11947;50.810;4.394;2022-08-04T00:33:20;24.70;99.90
23540;DHT22;11947;50.810;4.394;2022-08-04T00:35:47;24.70;99.90
23540;DHT22;11947;50.810;4.394;2022-08-04T00:38:15;24.60;99.90
23540;DHT22;11947;50.810;4.394;2022-08-04T00:41:16;24.50;99.90
23540;DHT22;11947;50.810;4.394;2022-08-04T00:44:21;24.50;99.90
23540;DHT22;11947;50.810;4.394;2022-08-04T01:01:16;24.30;99.90
23540;DHT22;11947;50.810;4.394;2022-08-04T01:04:06;24.20;99.90
23540;DHT22;11947;50.810;4.394;2022-08-04T01:15:09;24.10;99.90
23540;DHT22;11947;50.810;4.394;2022-08-04T01:20:16;24.00;99.90
23540;DHT22;11947;50.810;4.394;2022-08-04T01:28:32;23.90;99.90
23540;DHT22;11947;50.810;4.394;2022-08-04T01:31:10;23.80;99.90
23540;DHT22;11947;50.810;4.394;2022-08-04T01:33:41;23.80;99.90
23540;DHT22;11947;50.810;4.394;2022-08-04T01:36:08;23.70;99.90
23540;DHT22;11947;50.810;4.394;2022-08-04T01:38:38;23.70;99.90
23540;DHT22;11947;50.810;4.394;2022-08-04T01:41:09;23.70;99.90
23540;DHT22;11947;50.810;4.394;2022-08-04T01:43:44;23.70;99.90
23540;DHT22;11947;50.810;4.394;2022-08-04T01:46:13;23.70;99.90
23540;DHT22;11947;50.810;4.394;2022-08-04T01:48:43;23.70;99.90
23540;DHT22;11947;50.810;4.394;2022-08-04T01:51:09;23.60;99.90
23540;DHT22;11947;50.810;4.394;2022-08-04T01:53:40;23.60;99.90
23540;DHT22;11947;50.810;4.394;2022-08-04T01:56:08;23.70;99.90
23540;DHT22;11947;50.810;4.394;2022-08-04T01:58:37;23.70;99.90
23540;DHT22;11947;50.810;4.394;2022-08-04T02:01:06;23.60;99.90
23540;DHT22;11947;50.810;4.394;2022-08-04T02:03:34;23.60;99.90
23540;DHT22;11947;50.810;4.394;2022-08-04T02:06:06;23.60;99.90
23540;DHT22;11947;50.810;4.394;2022-08-04T02:11:19;23.50;99.90
23540;DHT22;11947;50.810;4.394;2022-08-04T02:16:43;23.50;99.90
23540;DHT22;11947;50.810;4.394;2022-08-04T02:19:29;23.50;99.90
23540;DHT22;11947;50.810;4.394;2022-08-04T02:22:06;23.50;99.90
23540;DHT22;11947;50.810;4.394;2022-08-04T02:24:32;23.40;99.90
23540;DHT22;11947;50.810;4.394;2022-08-04T02:27:00;23.40;99.90
23540;DHT22;11947;50.810;4.394;2022-08-04T02:29:45;23.40;99.90
23540;DHT22;11947;50.810;4.394;2022-08-04T02:32:26;23.40;99.90
23540;DHT22;11947;50.810;4.394;2022-08-04T02:35:09;23.40;99.90
23540;DHT22;11947;50.810;4.394;2022-08-04T02:37:37;23.30;99.90
23540;DHT22;11947;50.810;4.394;2022-08-04T02:40:07;23.30;99.90
23540;DHT22;11947;50.810;4.394;2022-08-04T02:42:33;23.20;99.90
23540;DHT22;11947;50.810;4.394;2022-08-04T02:44:59;23.30;99.90
23540;DHT22;11947;50.810;4.394;2022-08-04T02:47:27;23.20;99.90
23540;DHT22;11947;50.810;4.394;2022-08-04T02:49:55;23.20;99.90
23540;DHT22;11947;50.810;4.394;2022-08-04T02:52:23;23.20;99.90
23540;DHT22;11947;50.810;4.394;2022-08-04T02:54:52;23.10;99.90
23540;DHT22;11947;50.810;4.394;2022-08-04T02:57:18;23.10;99.90
23540;DHT22;11947;50.810;4.394;2022-08-04T03:00:05;23.10;99.90
23540;DHT22;11947;50.810;4.394;2022-08-04T03:11:37;22.80;99.90
23540;DHT22;11947;50.810;4.394;2022-08-04T03:20:09;22.80;99.90
23540;DHT22;11947;50.810;4.394;2022-08-04T03:28:57;22.70;99.90
23540;DHT22;11947;50.810;4.394;2022-08-04T03:51:11;22.80;99.90
23540;DHT22;11947;50.810;4.394;2022-08-04T03:57:08;22.80;99.90
23540;DHT22;11947;50.810;4.394;2022-08-04T04:07:53;22.80;99.90
23540;DHT22;11947;50.810;4.394;2022-08-04T04:10:46;22.80;99.90
23540;DHT22;11947;50.810;4.394;2022-08-04T04:15:48;22.80;99.90
23540;DHT22;11947;50.810;4.394;2022-08-04T04:31:58;22.80;99.90
23540;DHT22;11947;50.810;4.394;2022-08-04T04:40:09;22.80;99.90
23540;DHT22;11947;50.810;4.394;2022-08-04T04:55:50;22.80;99.90
23540;DHT22;11947;50.810;4.394;2022-08-04T04:58:17;22.90;99.90
23540;DHT22;11947;50.810;4.394;2022-08-04T05:04:10;22.90;99.90
23540;DHT22;11947;50.810;4.394;2022-08-04T05:15:26;22.90;99.90
23540;DHT22;11947;50.810;4.394;2022-08-04T05:17:56;22.90;99.90
23540;DHT22;11947;50.810;4.394;2022-08-04T05:20:37;22.90;99.90
23540;DHT22;11947;50.810;4.394;2022-08-04T05:23:15;22.90;99.90
23540;DHT22;11947;50.810;4.394;2022-08-04T05:26:22;23.00;99.90
23540;DHT22;11947;50.810;4.394;2022-08-04T05:29:20;23.00;99.90
23540;DHT22;11947;50.810;4.394;2022-08-04T05:31:56;23.10;99.90
23540;DHT22;11947;50.810;4.394;2022-08-04T05:35:09;23.10;99.90
23540;DHT22;11947;50.810;4.394;2022-08-04T05:38:01;23.10;99.90
23540;DHT22;11947;50.810;4.394;2022-08-04T05:40:54;23.10;99.90
23540;DHT22;11947;50.810;4.394;2022-08-04T05:44:14;23.20;99.90
23540;DHT22;11947;50.810;4.394;2022-08-04T05:47:04;23.20;99.90
23540;DHT22;11947;50.810;4.394;2022-08-04T05:49:39;23.30;99.90
23540;DHT22;11947;50.810;4.394;2022-08-04T05:53:10;23.40;99.90
23540;DHT22;11947;50.810;4.394;2022-08-04T05:56:17;23.50;99.90
23540;DHT22;11947;50.810;4.394;2022-08-04T05:58:45;23.50;99.90
23540;DHT22;11947;50.810;4.394;2022-08-04T06:01:11;23.60;99.90
23540;DHT22;11947;50.810;4.394;2022-08-04T06:03:39;23.70;99.90
23540;DHT22;11947;50.810;4.394;2022-08-04T06:06:06;23.70;99.90
23540;DHT22;11947;50.810;4.394;2022-08-04T06:08:32;23.70;99.90
23540;DHT22;11947;50.810;4.394;2022-08-04T06:11:02;23.80;99.90
23540;DHT22;11947;50.810;4.394;2022-08-04T06:13:30;23.90;99.90
23540;DHT22;11947;50.810;4.394;2022-08-04T06:15:58;23.80;99.90
23540;DHT22;11947;50.810;4.394;2022-08-04T06:18:28;24.00;99.90
23540;DHT22;11947;50.810;4.394;2022-08-04T06:20:57;24.10;99.90
23540;DHT22;11947;50.810;4.394;2022-08-04T06:23:28;24.10;99.90
23540;DHT22;11947;50.810;4.394;2022-08-04T06:25:57;24.10;99.90
23540;DHT22;11947;50.810;4.394;2022-08-04T06:28:25;24.10;99.90
23540;DHT22;11947;50.810;4.394;2022-08-04T06:30:52;24.00;99.90
23540;DHT22;11947;50.810;4.394;2022-08-04T06:33:19;24.10;99.90
23540;DHT22;11947;50.810;4.394;2022-08-04T06:36:00;24.20;99.90
23540;DHT22;11947;50.810;4.394;2022-08-04T06:38:30;24.30;99.90
23540;DHT22;11947;50.810;4.394;2022-08-04T06:41:04;24.30;99.90
23540;DHT22;11947;50.810;4.394;2022-08-04T06:44:01;24.50;99.90
23540;DHT22;11947;50.810;4.394;2022-08-04T06:46:48;24.60;99.90
23540;DHT22;11947;50.810;4.394;2022-08-04T06:49:25;24.70;99.90
23540;DHT22;11947;50.810;4.394;2022-08-04T06:52:30;25.00;99.90
23540;DHT22;11947;50.810;4.394;2022-08-04T06:54:56;25.30;99.90
23540;DHT22;11947;50.810;4.394;2022-08-04T06:57:25;25.40;99.90
23540;DHT22;11947;50.810;4.394;2022-08-04T07:02:33;25.70;99.90
23540;DHT22;11947;50.810;4.394;2022-08-04T07:05:01;25.80;99.90
23540;DHT22;11947;50.810;4.394;2022-08-04T07:07:26;26.00;99.90
23540;DHT22;11947;50.810;4.394;2022-08-04T07:09:52;26.00;99.90
23540;DHT22;11947;50.810;4.394;2022-08-04T07:12:19;26.00;99.90
23540;DHT22;11947;50.810;4.394;2022-08-04T07:14:46;26.10;99.90
23540;DHT22;11947;50.810;4.394;2022-08-04T07:17:13;26.00;99.90
23540;DHT22;11947;50.810;4.394;2022-08-04T07:19:43;25.90;99.90
23540;DHT22;11947;50.810;4.394;2022-08-04T07:22:09;26.00;99.90
23540;DHT22;11947;50.810;4.394;2022-08-04T07:24:36;26.10;99.90
23540;DHT22;11947;50.810;4.394;2022-08-04T07:27:03;26.10;99.90
23540;DHT22;11947;50.810;4.394;2022-08-04T07:29:29;26.00;99.90
23540;DHT22;11947;50.810;4.394;2022-08-04T07:31:56;26.00;99.90
23540;DHT22;11947;50.810;4.394;2022-08-04T07:34:23;26.00;99.90
23540;DHT22;11947;50.810;4.394;2022-08-04T07:36:51;26.10;99.90
23540;DHT22;11947;50.810;4.394;2022-08-04T07:39:17;26.10;99.90
23540;DHT22;11947;50.810;4.394;2022-08-04T07:41:44;26.10;99.90
23540;DHT22;11947;50.810;4.394;2022-08-04T07:44:13;26.00;99.90
23540;DHT22;11947;50.810;4.394;2022-08-04T07:46:38;26.00;99.90
23540;DHT22;11947;50.810;4.394;2022-08-04T07:49:05;26.00;99.90
23540;DHT22;11947;50.810;4.394;2022-08-04T07:51:32;26.00;99.90
23540;DHT22;11947;50.810;4.394;2022-08-04T07:54:00;26.00;99.90
23540;DHT22;11947;50.810;4.394;2022-08-04T07:56:32;26.00;99.90
23540;DHT22;11947;50.810;4.394;2022-08-04T07:59:17;25.90;99.90
23540;DHT22;11947;50.810;4.394;2022-08-04T08:01:43;25.90;99.90
23540;DHT22;11947;50.810;4.394;2022-08-04T08:04:09;26.00;99.90
23540;DHT22;11947;50.810;4.394;2022-08-04T08:06:39;26.10;99.90
23540;DHT22;11947;50.810;4.394;2022-08-04T08:09:18;26.20;99.90
23540;DHT22;11947;50.810;4.394;2022-08-04T08:12:06;26.30;99.90
23540;DHT22;11947;50.810;4.394;2022-08-04T08:15:07;26.20;99.90
23540;DHT22;11947;50.810;4.394;2022-08-04T08:21:08;26.20;99.90
23540;DHT22;11947;50.810;4.394;2022-08-04T08:23:36;26.00;99.90
23540;DHT22;11947;50.810;4.394;2022-08-04T08:26:10;26.10;99.90
23540;DHT22;11947;50.810;4.394;2022-08-04T08:28:35;26.20;99.90
23540;DHT22;11947;50.810;4.394;2022-08-04T08:31:01;26.00;99.90
23540;DHT22;11947;50.810;4.394;2022-08-04T08:33:27;26.00;99.90
23540;DHT22;11947;50.810;4.394;2022-08-04T08:37:03;25.90;99.90
23540;DHT22;11947;50.810;4.394;2022-08-04T08:39:11;25.90;99.90
23540;DHT22;11947;50.810;4.394;2022-08-04T08:56:10;25.30;99.90
23540;DHT22;11947;50.810;4.394;2022-08-04T09:10:25;25.00;99.90
23540;DHT22;11947;50.810;4.394;2022-08-04T09:13:03;24.90;99.90
23540;DHT22;11947;50.810;4.394;2022-08-04T09:21:05;24.80;99.90
23540;DHT22;11947;50.810;4.394;2022-08-04T09:26:18;24.60;99.90
23540;DHT22;11947;50.810;4.394;2022-08-04T09:31:29;24.40;99.90
23540;DHT22;11947;50.810;4.394;2022-08-04T09:34:45;24.30;99.90
23540;DHT22;11947;50.810;4.394;2022-08-04T09:40:33;24.20;99.90
23540;DHT22;11947;50.810;4.394;2022-08-04T09:43:16;24.20;99.90
23540;DHT22;11947;50.810;4.394;2022-08-04T09:49:05;24.30;99.90
23540;DHT22;11947;50.810;4.394;2022-08-04T10:00:44;24.50;99.90
23540;DHT22;11947;50.810;4.394;2022-08-04T10:03:15;24.60;99.90
23540;DHT22;11947;50.810;4.394;2022-08-04T10:11:52;25.30;99.90
23540;DHT22;11947;50.810;4.394;2022-08-04T10:15:19;25.70;99.90
23540;DHT22;11947;50.810;4.394;2022-08-04T10:24:34;27.90;99.90
23540;DHT22;11947;50.810;4.394;2022-08-04T10:27:11;28.40;99.90
23540;DHT22;11947;50.810;4.394;2022-08-04T10:29:44;28.40;99.90
23540;DHT22;11947;50.810;4.394;2022-08-04T10:32:19;28.20;99.90
23540;DHT22;11947;50.810;4.394;2022-08-04T10:37:28;27.60;99.90
23540;DHT22;11947;50.810;4.394;2022-08-04T10:40:02;27.50;99.90
23540;DHT22;11947;50.810;4.394;2022-08-04T10:45:27;27.70;99.90
23540;DHT22;11947;50.810;4.394;2022-08-04T10:50:25;28.10;99.90
23540;DHT22;11947;50.810;4.394;2022-08-04T10:52:59;28.20;99.90
23540;DHT22;11947;50.810;4.394;2022-08-04T10:55:41;28.50;99.90
23540;DHT22;11947;50.810;4.394;2022-08-04T10:58:17;28.70;99.90
23540;DHT22;11947;50.810;4.394;2022-08-04T11:00:45;28.70;99.90
23540;DHT22;11947;50.810;4.394;2022-08-04T11:03:37;29.00;99.90
23540;DHT22;11947;50.810;4.394;2022-08-04T11:06:05;29.40;99.90
23540;DHT22;11947;50.810;4.394;2022-08-04T11:08:34;29.50;99.90
23540;DHT22;11947;50.810;4.394;2022-08-04T11:11:38;29.60;99.90
23540;DHT22;11947;50.810;4.394;2022-08-04T11:17:42;29.40;99.90
23540;DHT22;11947;50.810;4.394;2022-08-04T11:20:49;29.30;99.90
23540;DHT22;11947;50.810;4.394;2022-08-04T11:23:15;29.40;99.90
23540;DHT22;11947;50.810;4.394;2022-08-04T11:26:20;29.50;99.90
23540;DHT22;11947;50.810;4.394;2022-08-04T11:31:56;29.80;99.90
23540;DHT22;11947;50.810;4.394;2022-08-04T11:34:51;29.50;99.90
23540;DHT22;11947;50.810;4.394;2022-08-04T11:38:11;29.10;99.90
23540;DHT22;11947;50.810;4.394;2022-08-04T11:41:06;28.90;99.90
23540;DHT22;11947;50.810;4.394;2022-08-04T11:44:11;28.80;99.90
23540;DHT22;11947;50.810;4.394;2022-08-04T11:46:49;28.70;99.90
23540;DHT22;11947;50.810;4.394;2022-08-04T11:49:40;28.40;99.90
23540;DHT22;11947;50.810;4.394;2022-08-04T11:52:09;28.20;99.90
23540;DHT22;11947;50.810;4.394;2022-08-04T11:54:37;28.40;99.90
23540;DHT22;11947;50.810;4.394;2022-08-04T11:57:07;28.80;99.90
23540;DHT22;11947;50.810;4.394;2022-08-04T11:59:34;29.50;99.90
23540;DHT22;11947;50.810;4.394;2022-08-04T12:05:24;30.30;99.90
23540;DHT22;11947;50.810;4.394;2022-08-04T12:07:58;30.70;99.90
23540;DHT22;11947;50.810;4.394;2022-08-04T12:11:11;31.10;99.90
23540;DHT22;11947;50.810;4.394;2022-08-04T12:16:33;31.70;99.90
23540;DHT22;11947;50.810;4.394;2022-08-04T12:22:19;32.80;99.90
23540;DHT22;11947;50.810;4.394;2022-08-04T12:24:52;33.00;99.90
23540;DHT22;11947;50.810;4.394;2022-08-04T12:27:46;33.80;99.90
23540;DHT22;11947;50.810;4.394;2022-08-04T12:30:18;34.40;99.40
23540;DHT22;11947;50.810;4.394;2022-08-04T12:33:11;34.80;98.10
23540;DHT22;11947;50.810;4.394;2022-08-04T12:36:26;35.30;97.50
23540;DHT22;11947;50.810;4.394;2022-08-04T12:39:14;35.80;95.00
23540;DHT22;11947;50.810;4.394;2022-08-04T12:41:57;36.10;95.30
23540;DHT22;11947;50.810;4.394;2022-08-04T12:44:31;36.10;94.40
23540;DHT22;11947;50.810;4.394;2022-08-04T12:47:22;36.20;94.00
23540;DHT22;11947;50.810;4.394;2022-08-04T12:49:52;36.20;94.00
23540;DHT22;11947;50.810;4.394;2022-08-04T12:52:20;36.00;93.60
23540;DHT22;11947;50.810;4.394;2022-08-04T12:54:52;36.30;94.40
23540;DHT22;11947;50.810;4.394;2022-08-04T12:57:20;36.60;93.40
23540;DHT22;11947;50.810;4.394;2022-08-04T12:59:51;36.20;92.80
23540;DHT22;11947;50.810;4.394;2022-08-04T13:02:43;36.20;92.50
23540;DHT22;11947;50.810;4.394;2022-08-04T13:05:35;36.00;92.70
23540;DHT22;11947;50.810;4.394;2022-08-04T13:08:02;34.90;94.00
23540;DHT22;11947;50.810;4.394;2022-08-04T13:10:29;34.40;94.20
23540;DHT22;11947;50.810;4.394;2022-08-04T13:12:57;34.50;94.50
23540;DHT22;11947;50.810;4.394;2022-08-04T13:15:56;34.50;94.10
23540;DHT22;11947;50.810;4.394;2022-08-04T13:18:29;34.60;94.60
23540;DHT22;11947;50.810;4.394;2022-08-04T13:24:03;34.60;94.90
23540;DHT22;11947;50.810;4.394;2022-08-04T13:26:35;35.00;93.90
23540;DHT22;11947;50.810;4.394;2022-08-04T13:29:05;35.00;94.20
23540;DHT22;11947;50.810;4.394;2022-08-04T13:31:36;34.50;93.30
23540;DHT22;11947;50.810;4.394;2022-08-04T13:34:15;34.40;94.10
23540;DHT22;11947;50.810;4.394;2022-08-04T13:36:42;34.30;94.80
23540;DHT22;11947;50.810;4.394;2022-08-04T13:39:18;34.20;95.30
23540;DHT22;11947;50.810;4.394;2022-08-04T13:41:50;34.00;95.70
23540;DHT22;11947;50.810;4.394;2022-08-04T13:44:24;33.90;95.00
23540;DHT22;11947;50.810;4.394;2022-08-04T13:46:58;33.80;95.70
23540;DHT22;11947;50.810;4.394;2022-08-04T13:49:24;33.40;94.70
23540;DHT22;11947;50.810;4.394;2022-08-04T13:51:53;33.00;96.20
23540;DHT22;11947;50.810;4.394;2022-08-04T13:54:34;32.60;96.80
23540;DHT22;11947;50.810;4.394;2022-08-04T13:57:16;32.40;97.10
23540;DHT22;11947;50.810;4.394;2022-08-04T14:00:17;32.10;97.30
23540;DHT22;11947;50.810;4.394;2022-08-04T14:02:48;32.00;98.50
23540;DHT22;11947;50.810;4.394;2022-08-04T14:05:15;31.80;98.10
23540;DHT22;11947;50.810;4.394;2022-08-04T14:07:50;31.50;98.10
23540;DHT22;11947;50.810;4.394;2022-08-04T14:10:38;31.40;98.70
23540;DHT22;11947;50.810;4.394;2022-08-04T14:13:29;31.30;98.50
23540;DHT22;11947;50.810;4.394;2022-08-04T14:15:55;31.20;99.20
23540;DHT22;11947;50.810;4.394;2022-08-04T14:21:06;31.20;99.90
23540;DHT22;11947;50.810;4.394;2022-08-04T14:23:42;30.90;99.90
23540;DHT22;11947;50.810;4.394;2022-08-04T14:26:22;31.20;99.50
23540;DHT22;11947;50.810;4.394;2022-08-04T14:28:54;31.00;99.90
23540;DHT22;11947;50.810;4.394;2022-08-04T14:31:26;31.00;99.90
23540;DHT22;11947;50.810;4.394;2022-08-04T14:33:53;31.20;99.30
23540;DHT22;11947;50.810;4.394;2022-08-04T14:36:20;31.60;99.40
23540;DHT22;11947;50.810;4.394;2022-08-04T14:41:19;31.70;99.30
23540;DHT22;11947;50.810;4.394;2022-08-04T14:44:03;31.70;98.30
23540;DHT22;11947;50.810;4.394;2022-08-04T14:46:28;31.30;97.90
23540;DHT22;11947;50.810;4.394;2022-08-04T14:49:11;31.20;99.00
23540;DHT22;11947;50.810;4.394;2022-08-04T14:51:59;31.00;98.60
23540;DHT22;11947;50.810;4.394;2022-08-04T14:54:31;30.90;99.70
23540;DHT22;11947;50.810;4.394;2022-08-04T14:57:04;30.70;99.10
23540;DHT22;11947;50.810;4.394;2022-08-04T14:59:43;30.80;98.40
23540;DHT22;11947;50.810;4.394;2022-08-04T15:02:10;30.80;99.90
23540;DHT22;11947;50.810;4.394;2022-08-04T15:04:38;30.70;98.90
23540;DHT22;11947;50.810;4.394;2022-08-04T15:07:05;30.50;99.80
23540;DHT22;11947;50.810;4.394;2022-08-04T15:09:31;30.30;99.30
23540;DHT22;11947;50.810;4.394;2022-08-04T15:11:57;30.20;99.90
23540;DHT22;11947;50.810;4.394;2022-08-04T15:14:23;30.20;99.40
23540;DHT22;11947;50.810;4.394;2022-08-04T15:16:49;30.10;99.90
23540;DHT22;11947;50.810;4.394;2022-08-04T15:19:15;30.10;99.90
23540;DHT22;11947;50.810;4.394;2022-08-04T15:21:40;30.10;99.90
23540;DHT22;11947;50.810;4.394;2022-08-04T15:24:06;30.10;99.90
23540;DHT22;11947;50.810;4.394;2022-08-04T15:26:37;30.10;99.80
23540;DHT22;11947;50.810;4.394;2022-08-04T15:29:39;30.00;99.90
23540;DHT22;11947;50.810;4.394;2022-08-04T15:32:07;29.90;99.90
23540;DHT22;11947;50.810;4.394;2022-08-04T15:34:48;29.70;99.90
23540;DHT22;11947;50.810;4.394;2022-08-04T15:40:15;29.70;99.90
23540;DHT22;11947;50.810;4.394;2022-08-04T15:45:49;29.60;99.90
23540;DHT22;11947;50.810;4.394;2022-08-04T15:53:32;29.50;99.90
23540;DHT22;11947;50.810;4.394;2022-08-04T15:58:55;29.40;99.90
23540;DHT22;11947;50.810;4.394;2022-08-04T16:01:21;29.40;99.90
23540;DHT22;11947;50.810;4.394;2022-08-04T16:03:49;29.30;99.90
23540;DHT22;11947;50.810;4.394;2022-08-04T16:16:46;29.30;99.90
23540;DHT22;11947;50.810;4.394;2022-08-04T16:22:37;29.40;99.90
23540;DHT22;11947;50.810;4.394;2022-08-04T16:25:04;29.50;99.90
23540;DHT22;11947;50.810;4.394;2022-08-04T16:27:56;29.50;99.90
23540;DHT22;11947;50.810;4.394;2022-08-04T16:30:26;29.50;99.90
23540;DHT22;11947;50.810;4.394;2022-08-04T16:33:12;29.50;99.90
23540;DHT22;11947;50.810;4.394;2022-08-04T16:35:56;29.40;99.90
23540;DHT22;11947;50.810;4.394;2022-08-04T16:39:01;29.20;99.90
23540;DHT22;11947;50.810;4.394;2022-08-04T16:41:41;29.00;99.90
23540;DHT22;11947;50.810;4.394;2022-08-04T16:46:54;29.00;99.90
23540;DHT22;11947;50.810;4.394;2022-08-04T16:49:20;28.90;99.90
23540;DHT22;11947;50.810;4.394;2022-08-04T16:51:48;28.70;99.90
23540;DHT22;11947;50.810;4.394;2022-08-04T16:54:14;28.70;99.90
23540;DHT22;11947;50.810;4.394;2022-08-04T16:56:40;28.70;99.90
23540;DHT22;11947;50.810;4.394;2022-08-04T16:59:28;28.60;99.90
23540;DHT22;11947;50.810;4.394;2022-08-04T17:01:54;28.60;99.90
23540;DHT22;11947;50.810;4.394;2022-08-04T17:04:30;28.60;99.90
23540;DHT22;11947;50.810;4.394;2022-08-04T17:07:01;28.50;99.90
23540;DHT22;11947;50.810;4.394;2022-08-04T17:09:28;28.50;99.90
23540;DHT22;11947;50.810;4.394;2022-08-04T17:11:54;28.50;99.90
23540;DHT22;11947;50.810;4.394;2022-08-04T17:14:26;28.20;99.90
23540;DHT22;11947;50.810;4.394;2022-08-04T17:16:55;28.20;99.90
23540;DHT22;11947;50.810;4.394;2022-08-04T17:19:22;28.20;99.90
23540;DHT22;11947;50.810;4.394;2022-08-04T17:21:51;28.20;99.90
23540;DHT22;11947;50.810;4.394;2022-08-04T17:24:17;28.10;99.90
23540;DHT22;11947;50.810;4.394;2022-08-04T17:26:45;28.10;99.90
23540;DHT22;11947;50.810;4.394;2022-08-04T17:29:11;28.00;99.90
23540;DHT22;11947;50.810;4.394;2022-08-04T17:31:40;28.00;99.90
23540;DHT22;11947;50.810;4.394;2022-08-04T17:34:14;27.80;99.90
23540;DHT22;11947;50.810;4.394;2022-08-04T17:36:41;27.80;99.90
23540;DHT22;11947;50.810;4.394;2022-08-04T17:39:14;27.80;99.90
23540;DHT22;11947;50.810;4.394;2022-08-04T17:41:41;27.70;99.90
23540;DHT22;11947;50.810;4.394;2022-08-04T17:44:10;27.70;99.90
23540;DHT22;11947;50.810;4.394;2022-08-04T17:46:37;27.70;99.90
23540;DHT22;11947;50.810;4.394;2022-08-04T17:49:19;27.60;99.90
23540;DHT22;11947;50.810;4.394;2022-08-04T17:51:55;27.60;99.90
23540;DHT22;11947;50.810;4.394;2022-08-04T17:54:39;27.60;99.90
23540;DHT22;11947;50.810;4.394;2022-08-04T17:57:16;27.40;99.90
23540;DHT22;11947;50.810;4.394;2022-08-04T18:02:09;27.20;99.90
23540;DHT22;11947;50.810;4.394;2022-08-04T18:07:35;27.20;99.90
23540;DHT22;11947;50.810;4.394;2022-08-04T18:10:02;27.20;99.90
23540;DHT22;11947;50.810;4.394;2022-08-04T18:12:30;27.10;99.90
23540;DHT22;11947;50.810;4.394;2022-08-04T18:15:00;27.00;99.90
23540;DHT22;11947;50.810;4.394;2022-08-04T18:17:35;26.80;99.90
23540;DHT22;11947;50.810;4.394;2022-08-04T18:20:04;26.70;99.90
23540;DHT22;11947;50.810;4.394;2022-08-04T18:22:31;26.70;99.90
23540;DHT22;11947;50.810;4.394;2022-08-04T18:24:57;26.60;99.90
23540;DHT22;11947;50.810;4.394;2022-08-04T18:27:24;26.50;99.90
23540;DHT22;11947;50.810;4.394;2022-08-04T18:29:51;26.50;99.90
23540;DHT22;11947;50.810;4.394;2022-08-04T18:32:17;26.60;99.90
23540;DHT22;11947;50.810;4.394;2022-08-04T18:34:45;26.60;99.90
23540;DHT22;11947;50.810;4.394;2022-08-04T18:37:10;26.40;99.90
23540;DHT22;11947;50.810;4.394;2022-08-04T18:39:36;26.30;99.90
23540;DHT22;11947;50.810;4.394;2022-08-04T18:42:02;26.20;99.90
23540;DHT22;11947;50.810;4.394;2022-08-04T18:44:28;26.10;99.90
23540;DHT22;11947;50.810;4.394;2022-08-04T18:46:58;26.00;99.90
23540;DHT22;11947;50.810;4.394;2022-08-04T18:49:24;26.00;99.90
23540;DHT22;11947;50.810;4.394;2022-08-04T18:51:54;25.90;99.90
23540;DHT22;11947;50.810;4.394;2022-08-04T18:54:21;25.80;99.90
23540;DHT22;11947;50.810;4.394;2022-08-04T18:56:50;25.60;99.90
23540;DHT22;11947;50.810;4.394;2022-08-04T18:59:16;25.50;99.90
23540;DHT22;11947;50.810;4.394;2022-08-04T19:01:42;25.40;99.90
23540;DHT22;11947;50.810;4.394;2022-08-04T19:04:08;25.30;99.90
23540;DHT22;11947;50.810;4.394;2022-08-04T19:06:34;25.10;99.90
23540;DHT22;11947;50.810;4.394;2022-08-04T19:09:01;24.90;99.90
23540;DHT22;11947;50.810;4.394;2022-08-04T19:11:27;24.60;99.90
23540;DHT22;11947;50.810;4.394;2022-08-04T19:13:58;24.30;99.90
23540;DHT22;11947;50.810;4.394;2022-08-04T19:16:26;23.90;99.90
23540;DHT22;11947;50.810;4.394;2022-08-04T19:18:52;23.40;99.90
23540;DHT22;11947;50.810;4.394;2022-08-04T19:21:18;23.10;99.90
23540;DHT22;11947;50.810;4.394;2022-08-04T19:23:43;22.90;99.90
23540;DHT22;11947;50.810;4.394;2022-08-04T19:26:09;22.60;99.90
23540;DHT22;11947;50.810;4.394;2022-08-04T19:28:35;22.50;99.90
23540;DHT22;11947;50.810;4.394;2022-08-04T19:31:05;22.20;99.90
23540;DHT22;11947;50.810;4.394;2022-08-04T19:33:31;22.30;99.90
23540;DHT22;11947;50.810;4.394;2022-08-04T19:35:57;22.00;99.90
23540;DHT22;11947;50.810;4.394;2022-08-04T19:38:24;21.90;99.90
23540;DHT22;11947;50.810;4.394;2022-08-04T19:40:50;21.80;99.90
23540;DHT22;11947;50.810;4.394;2022-08-04T19:43:15;21.80;99.90
23540;DHT22;11947;50.810;4.394;2022-08-04T19:45:42;21.90;99.90
23540;DHT22;11947;50.810;4.394;2022-08-04T19:48:07;21.70;99.90
23540;DHT22;11947;50.810;4.394;2022-08-04T19:50:33;21.50;99.90
23540;DHT22;11947;50.810;4.394;2022-08-04T19:52:59;21.40;99.90
23540;DHT22;11947;50.810;4.394;2022-08-04T19:55:25;21.10;99.90
23540;DHT22;11947;50.810;4.394;2022-08-04T19:57:51;21.00;99.90
23540;DHT22;11947;50.810;4.394;2022-08-04T20:00:18;20.80;99.90
23540;DHT22;11947;50.810;4.394;2022-08-04T20:02:45;20.80;99.90
23540;DHT22;11947;50.810;4.394;2022-08-04T20:05:21;20.70;99.90
23540;DHT22;11947;50.810;4.394;2022-08-04T20:07:47;20.60;99.90
23540;DHT22;11947;50.810;4.394;2022-08-04T20:10:14;20.60;99.90
23540;DHT22;11947;50.810;4.394;2022-08-04T20:12:40;20.50;99.90
23540;DHT22;11947;50.810;4.394;2022-08-04T20:15:06;20.60;99.90
23540;DHT22;11947;50.810;4.394;2022-08-04T20:17:32;20.60;99.90
23540;DHT22;11947;50.810;4.394;2022-08-04T20:19:58;20.50;99.90
23540;DHT22;11947;50.810;4.394;2022-08-04T20:22:23;20.50;99.90
23540;DHT22;11947;50.810;4.394;2022-08-04T20:24:49;20.50;99.90
23540;DHT22;11947;50.810;4.394;2022-08-04T20:27:16;20.40;99.90
23540;DHT22;11947;50.810;4.394;2022-08-04T20:29:47;20.30;99.90
23540;DHT22;11947;50.810;4.394;2022-08-04T20:32:13;20.30;99.90
23540;DHT22;11947;50.810;4.394;2022-08-04T20:34:39;20.20;99.90
23540;DHT22;11947;50.810;4.394;2022-08-04T20:37:05;20.10;99.90
23540;DHT22;11947;50.810;4.394;2022-08-04T20:39:30;20.10;99.90
23540;DHT22;11947;50.810;4.394;2022-08-04T20:41:56;20.00;99.90
23540;DHT22;11947;50.810;4.394;2022-08-04T20:44:22;19.90;99.90
23540;DHT22;11947;50.810;4.394;2022-08-04T20:46:48;20.00;99.90
23540;DHT22;11947;50.810;4.394;2022-08-04T20:49:14;20.10;99.90
23540;DHT22;11947;50.810;4.394;2022-08-04T20:51:40;20.10;99.90